Aviation Digital Data Service (ADDS)

Output produced by METARs form (0413 UTC 02 September 2014)
found at http://aviationweather.gov/adds/metars/
 
KBTV 012328Z 0200/0224 18003KT P6SM FEW040 
     FM020800 18006KT P6SM SCT060 BKN100 
     FM021300 19010KT P6SM SCT040 SCT100 
     FM021900 20010KT P6SM VCSH BKN040